Time;durP1;ratioP1;P1;durP2;ratioP2;P2;SDS_P1;SDS_P2;PMS_P1;PMS_P2;Temp;Humidity;BMP_temperature;BMP_pressure;BME280_temperature;BME280_humidity;BME280_pressure;Samples;Min_cycle;Max_cycle;Signal;HPM_P1;HPM_P2
2024/01/08 00:00:20;;;;;;;44.08;41.10;;;;;;;;;;6127422;23;20072;-87
2024/01/08 00:03:04;;;;;;;40.00;36.95;;;;;;;;;;6149678;23;20024;-87
2024/01/08 00:05:48;;;;;;;38.95;36.03;;;;;;;;;;6127301;23;20021;-87
2024/01/08 00:08:32;;;;;;;37.60;34.55;;;;;;;;;;6127855;23;20378;-86
2024/01/08 00:11:16;;;;;;;39.20;36.47;;;;;;;;;;6127834;23;20020;-89
2024/01/08 00:14:00;;;;;;;39.42;36.30;;;;;;;;;;6127207;23;20020;-86
2024/01/08 00:16:44;;;;;;;38.00;34.83;;;;;;;;;;6127339;23;20339;-87
2024/01/08 00:19:28;;;;;;;39.45;36.60;;;;;;;;;;6127712;23;20093;-87
2024/01/08 00:22:12;;;;;;;39.60;36.28;;;;;;;;;;6127871;23;20048;-87
2024/01/08 00:24:56;;;;;;;39.45;36.60;;;;;;;;;;6127198;23;20056;-87
2024/01/08 00:27:40;;;;;;;42.20;39.10;;;;;;;;;;6149486;23;20078;-88
2024/01/08 00:30:24;;;;;;;43.03;40.20;;;;;;;;;;6127702;23;20096;-89
2024/01/08 00:33:09;;;;;;;42.00;38.65;;;;;;;;;;6149268;23;20136;-86
2024/01/08 00:35:53;;;;;;;42.28;39.15;;;;;;;;;;6127349;23;20028;-88
2024/01/08 00:38:37;;;;;;;39.20;36.35;;;;;;;;;;6149741;23;20020;-87
2024/01/08 00:41:21;;;;;;;41.22;38.13;;;;;;;;;;6127709;23;20044;-87
2024/01/08 00:44:05;;;;;;;40.20;36.97;;;;;;;;;;6126948;23;20036;-86
2024/01/08 00:46:49;;;;;;;38.22;35.15;;;;;;;;;;6149076;23;20019;-87
2024/01/08 00:49:33;;;;;;;37.38;34.53;;;;;;;;;;6126912;23;20068;-87
2024/01/08 00:52:17;;;;;;;38.92;35.65;;;;;;;;;;6127455;23;20031;-87
2024/01/08 00:55:04;;;;;;;38.50;35.63;;;;;;;;;;6126997;23;20020;-88
2024/01/08 00:57:48;;;;;;;39.60;36.33;;;;;;;;;;6127630;23;20340;-88
2024/01/08 01:00:32;;;;;;;37.55;34.53;;;;;;;;;;6149591;23;20019;-88
2024/01/08 01:03:16;;;;;;;36.55;32.90;;;;;;;;;;6127087;23;20104;-89
2024/01/08 01:06:00;;;;;;;37.15;34.20;;;;;;;;;;6126723;23;20040;-87
2024/01/08 01:08:44;;;;;;;37.35;34.00;;;;;;;;;;6149831;23;20403;-88
2024/01/08 01:11:27;;;;;;;35.58;32.75;;;;;;;;;;6128030;23;20020;-91
2024/01/08 01:14:12;;;;;;;38.25;35.20;;;;;;;;;;6127328;23;20670;-89
2024/01/08 01:16:55;;;;;;;39.72;36.22;;;;;;;;;;6128263;23;20017;-88
2024/01/08 01:19:40;;;;;;;39.65;36.35;;;;;;;;;;6149736;23;20020;-89
2024/01/08 01:22:24;;;;;;;40.25;37.10;;;;;;;;;;6127920;23;20068;-89
2024/01/08 01:25:08;;;;;;;38.45;35.25;;;;;;;;;;6128115;23;20076;-89
2024/01/08 01:27:51;;;;;;;40.10;36.97;;;;;;;;;;6150281;23;20348;-87
2024/01/08 01:30:36;;;;;;;41.20;37.80;;;;;;;;;;6150573;23;20016;-88
2024/01/08 01:33:19;;;;;;;37.00;33.90;;;;;;;;;;6128413;23;20063;-91
2024/01/08 01:36:04;;;;;;;37.13;34.03;;;;;;;;;;6127990;23;20769;-88
2024/01/08 01:38:48;;;;;;;38.22;34.15;;;;;;;;;;6128288;23;20024;-87
2024/01/08 01:41:33;;;;;;;37.25;34.35;;;;;;;;;;6150364;23;20344;-88
2024/01/08 01:44:16;;;;;;;39.13;35.70;;;;;;;;;;6150113;23;20020;-89
2024/01/08 01:47:00;;;;;;;37.97;34.65;;;;;;;;;;6127976;23;20020;-89
2024/01/08 01:49:44;;;;;;;38.47;34.40;;;;;;;;;;6150124;23;20055;-90
2024/01/08 01:52:28;;;;;;;37.55;33.88;;;;;;;;;;6128260;23;20020;-88
2024/01/08 01:55:12;;;;;;;38.20;35.17;;;;;;;;;;6128425;23;20060;-88
2024/01/08 01:57:57;;;;;;;38.83;35.22;;;;;;;;;;6150194;23;20052;-87
2024/01/08 02:00:41;;;;;;;43.42;39.78;;;;;;;;;;6128110;23;20079;-88
2024/01/08 02:03:27;;;;;;;44.38;40.58;;;;;;;;;;6127577;23;20344;-88
2024/01/08 02:06:12;;;;;;;43.58;39.95;;;;;;;;;;6127639;23;20387;-87
2024/01/08 02:08:56;;;;;;;42.25;38.17;;;;;;;;;;6127469;23;20029;-89
2024/01/08 02:11:40;;;;;;;41.00;38.08;;;;;;;;;;6127869;23;20020;-89
2024/01/08 02:14:24;;;;;;;41.83;38.40;;;;;;;;;;6127391;23;20036;-89
2024/01/08 02:17:08;;;;;;;40.38;36.80;;;;;;;;;;6149890;23;20071;-88
2024/01/08 02:19:52;;;;;;;40.30;37.40;;;;;;;;;;6128010;23;20067;-88
2024/01/08 02:22:39;;;;;;;44.33;40.40;;;;;;;;;;6149420;23;20070;-87
2024/01/08 02:25:22;;;;;;;44.40;40.20;;;;;;;;;;6127765;23;20025;-87
2024/01/08 02:28:06;;;;;;;41.38;38.22;;;;;;;;;;6149977;23;20025;-88
2024/01/08 02:30:50;;;;;;;44.40;40.42;;;;;;;;;;6149810;23;20020;-88
2024/01/08 02:33:34;;;;;;;40.90;37.10;;;;;;;;;;6127485;23;20020;-88
2024/01/08 02:36:18;;;;;;;39.67;36.28;;;;;;;;;;6149871;23;20024;-87
2024/01/08 02:39:02;;;;;;;40.15;36.60;;;;;;;;;;6127258;23;20408;-87
2024/01/08 02:41:46;;;;;;;38.95;35.60;;;;;;;;;;6127553;23;20395;-89
2024/01/08 02:44:30;;;;;;;38.60;35.65;;;;;;;;;;6127528;23;20411;-87
2024/01/08 02:47:14;;;;;;;39.72;36.08;;;;;;;;;;6127406;23;20021;-89
2024/01/08 02:49:58;;;;;;;43.72;39.75;;;;;;;;;;6126829;23;20064;-90
2024/01/08 02:52:44;;;;;;;39.60;36.47;;;;;;;;;;6151020;23;20075;-87
2024/01/08 02:55:28;;;;;;;41.15;37.80;;;;;;;;;;6128997;23;20047;-90
2024/01/08 02:58:12;;;;;;;39.72;36.78;;;;;;;;;;6128792;23;20033;-89
2024/01/08 03:00:55;;;;;;;42.03;38.35;;;;;;;;;;6128775;23;20109;-88
2024/01/08 03:03:39;;;;;;;42.38;39.10;;;;;;;;;;6128504;23;20052;-88
2024/01/08 03:06:23;;;;;;;41.72;38.15;;;;;;;;;;6128595;23;20024;-89
2024/01/08 03:09:07;;;;;;;41.70;38.38;;;;;;;;;;6150897;23;20036;-89
2024/01/08 03:11:51;;;;;;;41.03;37.70;;;;;;;;;;6129102;23;20032;-88
2024/01/08 03:14:35;;;;;;;41.30;38.03;;;;;;;;;;6128859;23;20023;-89
2024/01/08 03:17:19;;;;;;;40.58;37.35;;;;;;;;;;6150790;23;20110;-89
2024/01/08 03:20:04;;;;;;;40.33;37.03;;;;;;;;;;6129004;23;20024;-89
2024/01/08 03:22:48;;;;;;;40.45;36.90;;;;;;;;;;6128581;23;20078;-87
2024/01/08 03:25:32;;;;;;;35.60;32.60;;;;;;;;;;6150702;23;20057;-90
2024/01/08 03:28:16;;;;;;;37.50;34.70;;;;;;;;;;6128528;23;20063;-89
2024/01/08 03:31:01;;;;;;;37.47;34.47;;;;;;;;;;6128731;23;20078;-89
2024/01/08 03:33:45;;;;;;;38.20;34.70;;;;;;;;;;6128627;23;20062;-88
2024/01/08 03:36:29;;;;;;;35.88;33.08;;;;;;;;;;6128708;23;20120;-87
2024/01/08 03:39:14;;;;;;;35.72;32.63;;;;;;;;;;6128500;23;20024;-87
2024/01/08 03:41:57;;;;;;;36.08;32.95;;;;;;;;;;6128357;23;20096;-87
2024/01/08 03:44:41;;;;;;;38.80;35.50;;;;;;;;;;6127780;23;20025;-88
2024/01/08 03:47:26;;;;;;;40.47;37.00;;;;;;;;;;6128375;23;20075;-87
2024/01/08 03:50:10;;;;;;;36.10;33.10;;;;;;;;;;6128310;23;20078;-88
2024/01/08 03:52:54;;;;;;;38.45;35.30;;;;;;;;;;6127988;23;20024;-88
2024/01/08 03:55:38;;;;;;;40.63;37.45;;;;;;;;;;6127697;23;20071;-87
2024/01/08 03:58:22;;;;;;;37.70;34.13;;;;;;;;;;6128266;23;20145;-88
2024/01/08 04:01:06;;;;;;;40.10;36.90;;;;;;;;;;6128424;23;20166;-89
2024/01/08 04:03:49;;;;;;;39.33;36.05;;;;;;;;;;6127846;23;20020;-87
2024/01/08 04:06:35;;;;;;;38.13;34.88;;;;;;;;;;6128095;23;20060;-87
2024/01/08 04:09:19;;;;;;;35.92;33.03;;;;;;;;;;6150727;23;20075;-88
2024/01/08 04:12:04;;;;;;;36.80;33.47;;;;;;;;;;6150187;23;20020;-87
2024/01/08 04:14:48;;;;;;;39.17;35.75;;;;;;;;;;6128209;23;20020;-88
2024/01/08 04:17:32;;;;;;;38.15;34.85;;;;;;;;;;6127910;23;20032;-87
2024/01/08 04:20:16;;;;;;;39.13;36.13;;;;;;;;;;6150231;23;20021;-88
2024/01/08 04:23:00;;;;;;;39.22;36.38;;;;;;;;;;6122268;23;20536;-87
2024/01/08 04:25:44;;;;;;;39.85;36.72;;;;;;;;;;6128456;23;20078;-89
2024/01/08 04:28:28;;;;;;;38.92;35.38;;;;;;;;;;6128401;23;20016;-87
2024/01/08 04:31:19;;;;;;;38.92;35.90;;;;;;;;;;6150340;23;20071;-88
2024/01/08 04:34:03;;;;;;;37.42;34.38;;;;;;;;;;6150063;23;20066;-89
2024/01/08 04:36:47;;;;;;;35.28;32.28;;;;;;;;;;6128382;23;20100;-89
2024/01/08 04:39:31;;;;;;;36.28;33.17;;;;;;;;;;6128329;23;20066;-88
2024/01/08 04:42:15;;;;;;;34.53;31.90;;;;;;;;;;6149982;23;20020;-90
2024/01/08 04:44:59;;;;;;;37.72;34.83;;;;;;;;;;6149482;23;20024;-87
2024/01/08 04:47:43;;;;;;;36.10;33.10;;;;;;;;;;6150227;23;20470;-87
2024/01/08 04:50:27;;;;;;;35.85;33.10;;;;;;;;;;6150601;23;20017;-89
2024/01/08 04:53:11;;;;;;;38.05;34.92;;;;;;;;;;6128488;23;20044;-89
2024/01/08 04:55:54;;;;;;;37.30;34.08;;;;;;;;;;6150109;23;20070;-89
2024/01/08 04:58:41;;;;;;;37.50;34.22;;;;;;;;;;6128436;23;20021;-87
2024/01/08 05:01:25;;;;;;;41.28;38.03;;;;;;;;;;6128897;23;20096;-88
2024/01/08 05:04:09;;;;;;;37.15;33.92;;;;;;;;;;6128665;23;20147;-87
2024/01/08 05:06:53;;;;;;;37.10;34.10;;;;;;;;;;6128529;23;20022;-92
2024/01/08 05:09:40;;;;;;;38.00;34.85;;;;;;;;;;6128342;23;20016;-88
2024/01/08 05:12:25;;;;;;;35.83;32.78;;;;;;;;;;6127227;23;20040;-88
2024/01/08 05:15:09;;;;;;;34.92;32.10;;;;;;;;;;6128245;23;20639;-88
2024/01/08 05:17:52;;;;;;;36.15;32.63;;;;;;;;;;6150373;23;20029;-87
2024/01/08 05:20:36;;;;;;;35.75;32.65;;;;;;;;;;6128137;23;20036;-88
2024/01/08 05:23:20;;;;;;;36.25;32.90;;;;;;;;;;6115999;23;20031;-87
2024/01/08 05:26:04;;;;;;;34.72;31.92;;;;;;;;;;6127656;23;20075;-88
2024/01/08 05:28:48;;;;;;;36.47;33.15;;;;;;;;;;6150401;23;20021;-87
2024/01/08 05:31:32;;;;;;;35.42;32.55;;;;;;;;;;6128228;23;20053;-87
2024/01/08 05:34:16;;;;;;;36.88;33.53;;;;;;;;;;6127549;23;20059;-87
2024/01/08 05:37:00;;;;;;;36.85;32.95;;;;;;;;;;6127804;23;20025;-89
2024/01/08 05:39:44;;;;;;;36.83;33.63;;;;;;;;;;6127692;23;20097;-90
2024/01/08 05:42:28;;;;;;;36.97;33.22;;;;;;;;;;6150314;23;20021;-87
2024/01/08 05:45:12;;;;;;;36.55;33.42;;;;;;;;;;6128114;23;20020;-87
2024/01/08 05:47:56;;;;;;;36.95;33.15;;;;;;;;;;6127940;23;20120;-87
2024/01/08 05:50:43;;;;;;;34.90;31.75;;;;;;;;;;6128672;23;20028;-87
2024/01/08 05:53:27;;;;;;;34.92;31.58;;;;;;;;;;6127684;23;20493;-86
2024/01/08 05:56:12;;;;;;;34.40;31.33;;;;;;;;;;6127693;23;20021;-87
2024/01/08 05:58:55;;;;;;;34.92;31.60;;;;;;;;;;6127454;23;20502;-88
2024/01/08 06:01:42;;;;;;;32.90;29.75;;;;;;;;;;6150175;23;20020;-86
2024/01/08 06:04:25;;;;;;;32.08;29.25;;;;;;;;;;6127722;23;20344;-86
2024/01/08 06:07:09;;;;;;;35.75;32.55;;;;;;;;;;6127603;23;20067;-86
2024/01/08 06:09:53;;;;;;;35.25;31.92;;;;;;;;;;6127225;23;20093;-85
2024/01/08 06:12:37;;;;;;;67.85;43.85;;;;;;;;;;6127304;23;20062;-86
2024/01/08 06:15:21;;;;;;;44.03;39.58;;;;;;;;;;6127410;23;20029;-86
2024/01/08 06:18:06;;;;;;;34.97;31.70;;;;;;;;;;6127390;23;20021;-87
2024/01/08 06:20:50;;;;;;;30.67;28.02;;;;;;;;;;6127312;23;20098;-89
2024/01/08 06:23:35;;;;;;;32.60;29.38;;;;;;;;;;6128054;23;20069;-88
2024/01/08 06:26:19;;;;;;;31.75;27.75;;;;;;;;;;6128421;23;20534;-89
2024/01/08 06:29:03;;;;;;;30.92;28.13;;;;;;;;;;6150993;23;20083;-88
2024/01/08 06:31:47;;;;;;;32.50;29.02;;;;;;;;;;6128761;23;20070;-88
2024/01/08 06:34:31;;;;;;;28.42;25.52;;;;;;;;;;6127495;23;20024;-88
2024/01/08 06:37:15;;;;;;;28.55;25.73;;;;;;;;;;6127360;23;20071;-86
2024/01/08 06:39:59;;;;;;;29.00;26.02;;;;;;;;;;6128177;23;20099;-88
2024/01/08 06:42:42;;;;;;;27.42;24.63;;;;;;;;;;6128144;23;20028;-89
2024/01/08 06:45:26;;;;;;;27.17;24.60;;;;;;;;;;6128128;23;20093;-88
2024/01/08 06:48:11;;;;;;;27.00;24.20;;;;;;;;;;6128404;23;20063;-88
2024/01/08 06:50:55;;;;;;;28.08;25.30;;;;;;;;;;6150504;23;20079;-89
2024/01/08 06:53:39;;;;;;;27.08;24.50;;;;;;;;;;6150096;23;20470;-87
2024/01/08 06:56:23;;;;;;;27.10;24.23;;;;;;;;;;6128714;23;20455;-87
2024/01/08 06:59:07;;;;;;;26.05;23.42;;;;;;;;;;6150689;23;20053;-90
2024/01/08 07:01:51;;;;;;;25.98;23.35;;;;;;;;;;6128238;23;20024;-88
2024/01/08 07:04:35;;;;;;;25.98;22.73;;;;;;;;;;6150159;23;20144;-88
2024/01/08 07:07:19;;;;;;;26.20;23.13;;;;;;;;;;6150676;23;20020;-89
2024/01/08 07:10:04;;;;;;;24.70;21.58;;;;;;;;;;6128636;23;20071;-88
2024/01/08 07:12:48;;;;;;;24.17;21.73;;;;;;;;;;6128293;23;20344;-88
2024/01/08 07:15:43;;;;;;;23.45;20.95;;;;;;;;;;6128508;23;20025;-88
2024/01/08 07:18:27;;;;;;;23.30;20.98;;;;;;;;;;6151268;23;20399;-88
2024/01/08 07:21:13;;;;;;;23.90;21.15;;;;;;;;;;6149861;23;20344;-87
2024/01/08 07:23:57;;;;;;;24.38;19.88;;;;;;;;;;6150118;23;20024;-89
2024/01/08 07:26:41;;;;;;;21.27;19.05;;;;;;;;;;6128077;23;20025;-87
2024/01/08 07:29:25;;;;;;;28.60;20.90;;;;;;;;;;6150275;23;20070;-88
2024/01/08 07:32:09;;;;;;;22.35;20.33;;;;;;;;;;6128142;23;20063;-86
2024/01/08 07:34:53;;;;;;;21.05;19.10;;;;;;;;;;6129453;23;20078;-90
2024/01/08 07:37:37;;;;;;;21.58;19.65;;;;;;;;;;6132653;23;20024;-89
2024/01/08 07:40:25;;;;;;;21.80;19.65;;;;;;;;;;6134204;23;20024;-89
2024/01/08 07:43:09;;;;;;;24.50;20.77;;;;;;;;;;6134368;23;20518;-90
2024/01/08 07:45:53;;;;;;;20.73;18.77;;;;;;;;;;6137929;23;20475;-90
2024/01/08 07:48:37;;;;;;;23.13;20.92;;;;;;;;;;6139189;23;20017;-89
2024/01/08 07:51:25;;;;;;;23.85;21.00;;;;;;;;;;6137044;23;20012;-90
2024/01/08 07:54:09;;;;;;;22.02;19.67;;;;;;;;;;6137374;23;20381;-90
2024/01/08 07:56:53;;;;;;;22.60;20.33;;;;;;;;;;6140988;23;20040;-90
2024/01/08 08:06:20;;;;;;;24.08;21.08;;;;;;;;;;6157761;23;20077;-88
2024/01/08 08:09:07;;;;;;;24.67;22.33;;;;;;;;;;6248669;22;20485;-90
2024/01/08 08:11:53;;;;;;;26.45;21.98;;;;;;;;;;6257315;22;20170;-89
2024/01/08 08:14:40;;;;;;;25.65;23.15;;;;;;;;;;6253391;22;20025;-90
2024/01/08 08:17:54;;;;;;;25.70;20.65;;;;;;;;;;6263987;22;20009;-89
2024/01/08 08:20:38;;;;;;;;;;;;;;;;;;6257041;22;20024;-89
2024/01/08 08:23:24;;;;;;;;;;;;;;;;;;6241542;22;20342;-89
2024/01/08 08:26:07;;;;;;;23.40;21.25;;;;;;;;;;6238880;22;19919;-86
2024/01/08 08:28:52;;;;;;;25.05;21.92;;;;;;;;;;6236961;22;20066;-86
2024/01/08 08:31:35;;;;;;;24.10;21.80;;;;;;;;;;6236530;22;20020;-86
2024/01/08 08:34:19;;;;;;;24.95;22.27;;;;;;;;;;6149534;23;20466;-86
2024/01/08 08:37:03;;;;;;;25.30;22.58;;;;;;;;;;6149717;23;20067;-84
2024/01/08 08:40:01;;;;;;;24.27;21.98;;;;;;;;;;6237194;22;20451;-86
2024/01/08 08:42:45;;;;;;;24.15;21.88;;;;;;;;;;6239220;22;20020;-87
2024/01/08 08:45:33;;;;;;;21.48;19.48;;;;;;;;;;6149596;23;20039;-87
2024/01/08 08:48:18;;;;;;;23.52;20.98;;;;;;;;;;6149806;23;20017;-85
2024/01/08 08:51:02;;;;;;;24.20;21.75;;;;;;;;;;6150296;23;20050;-86
2024/01/08 08:53:46;;;;;;;20.67;18.67;;;;;;;;;;6237519;22;20067;-87
2024/01/08 08:56:32;;;;;;;21.95;19.60;;;;;;;;;;6150272;23;20021;-85
2024/01/08 08:59:16;;;;;;;20.67;18.98;;;;;;;;;;6237727;22;20021;-86
2024/01/08 09:02:00;;;;;;;21.27;19.17;;;;;;;;;;6237365;22;20024;-86
2024/01/08 09:04:44;;;;;;;22.02;19.95;;;;;;;;;;6246264;22;20345;-87
2024/01/08 09:07:28;;;;;;;19.67;18.08;;;;;;;;;;6283527;22;20388;-89
2024/01/08 09:10:12;;;;;;;20.50;18.67;;;;;;;;;;6283797;22;20390;-87
2024/01/08 09:13:08;;;;;;;20.50;18.77;;;;;;;;;;6306924;22;20017;-91
2024/01/08 09:15:52;;;;;;;20.08;18.30;;;;;;;;;;6283599;22;20098;-88
2024/01/08 09:18:36;;;;;;;19.65;17.98;;;;;;;;;;6283453;22;20361;-89
2024/01/08 09:21:20;;;;;;;19.45;17.85;;;;;;;;;;6283693;22;20044;-89
2024/01/08 09:24:05;;;;;;;20.33;18.35;;;;;;;;;;6283464;22;20380;-87
2024/01/08 09:26:49;;;;;;;21.08;18.95;;;;;;;;;;6283519;22;20092;-87
2024/01/08 09:29:33;;;;;;;20.42;18.65;;;;;;;;;;6283385;22;20014;-88
2024/01/08 09:32:17;;;;;;;21.92;19.85;;;;;;;;;;6283761;22;20031;-88
2024/01/08 09:35:01;;;;;;;20.52;18.55;;;;;;;;;;6283332;22;20094;-89
2024/01/08 09:37:44;;;;;;;21.45;18.00;;;;;;;;;;6283392;22;20069;-88
2024/01/08 09:40:28;;;;;;;18.08;16.60;;;;;;;;;;6283259;22;20034;-90
2024/01/08 09:43:14;;;;;;;19.92;18.02;;;;;;;;;;6283358;22;20034;-90
2024/01/08 09:45:58;;;;;;;18.33;16.60;;;;;;;;;;6283296;22;20096;-88
2024/01/08 09:48:43;;;;;;;20.35;18.52;;;;;;;;;;6282977;22;20065;-88
2024/01/08 09:51:27;;;;;;;19.20;17.55;;;;;;;;;;6283321;22;20447;-89
2024/01/08 09:54:11;;;;;;;20.17;18.48;;;;;;;;;;6306368;22;20042;-87
2024/01/08 09:56:58;;;;;;;20.00;18.10;;;;;;;;;;6283219;22;20460;-88
2024/01/08 09:59:42;;;;;;;21.92;20.00;;;;;;;;;;6283077;22;20083;-90
2024/01/08 10:02:25;;;;;;;21.33;19.17;;;;;;;;;;6283314;22;20030;-87
2024/01/08 10:05:09;;;;;;;21.38;19.58;;;;;;;;;;6283084;22;20022;-86
2024/01/08 10:07:53;;;;;;;21.27;19.42;;;;;;;;;;6283148;22;20014;-89
2024/01/08 10:10:38;;;;;;;25.85;23.52;;;;;;;;;;6283224;22;20031;-87
2024/01/08 10:13:22;;;;;;;23.27;21.13;;;;;;;;;;6283680;22;20022;-87
2024/01/08 10:16:07;;;;;;;19.23;17.30;;;;;;;;;;6283054;22;20092;-87
2024/01/08 10:18:51;;;;;;;23.00;20.10;;;;;;;;;;6283509;22;20075;-87
2024/01/08 10:21:35;;;;;;;20.13;18.38;;;;;;;;;;6283271;22;20018;-90
2024/01/08 10:24:24;;;;;;;21.08;19.08;;;;;;;;;;6283300;22;20029;-88
2024/01/08 10:27:08;;;;;;;18.77;16.98;;;;;;;;;;6282963;22;20050;-88
2024/01/08 10:29:58;;;;;;;19.92;16.92;;;;;;;;;;6283139;22;20023;-88
2024/01/08 10:32:43;;;;;;;17.38;15.70;;;;;;;;;;6283099;22;20437;-89
2024/01/08 10:35:30;;;;;;;16.50;15.10;;;;;;;;;;6305792;22;20025;-88
2024/01/08 10:38:14;;;;;;;16.50;14.90;;;;;;;;;;6283530;22;20037;-89
2024/01/08 10:41:00;;;;;;;13.93;12.52;;;;;;;;;;6282928;22;20021;-88
2024/01/08 10:43:45;;;;;;;13.70;12.60;;;;;;;;;;6305540;22;20460;-88
2024/01/08 10:46:33;;;;;;;14.00;12.35;;;;;;;;;;6282708;22;20021;-89
2024/01/08 10:49:18;;;;;;;15.20;13.88;;;;;;;;;;6305868;22;20056;-88
2024/01/08 10:52:09;;;;;;;21.05;15.95;;;;;;;;;;6282794;22;20014;-91
2024/01/08 10:54:53;;;;;;;22.70;13.57;;;;;;;;;;6305617;22;20018;-88
2024/01/08 10:57:59;;;;;;;19.17;13.07;;;;;;;;;;6282905;22;20149;-87
2024/01/08 11:00:43;;;;;;;13.07;10.70;;;;;;;;;;6305943;22;20026;-87
2024/01/08 11:03:27;;;;;;;9.80;8.77;;;;;;;;;;6282541;22;20073;-86
2024/01/08 11:06:12;;;;;;;14.77;10.93;;;;;;;;;;6282680;22;20073;-90
2024/01/08 11:08:59;;;;;;;12.77;10.98;;;;;;;;;;6283825;22;20018;-86
2024/01/08 11:11:43;;;;;;;10.32;9.02;;;;;;;;;;6284193;22;20341;-89
2024/01/08 11:14:29;;;;;;;15.25;10.05;;;;;;;;;;6284555;22;20018;-87
2024/01/08 11:17:14;;;;;;;18.17;10.32;;;;;;;;;;6284623;22;20092;-87
2024/01/08 11:19:59;;;;;;;17.40;9.43;;;;;;;;;;6284756;22;20472;-88
2024/01/08 11:22:44;;;;;;;12.50;8.77;;;;;;;;;;6284823;22;20038;-88
2024/01/08 11:25:28;;;;;;;14.95;9.38;;;;;;;;;;6284376;22;20398;-88
2024/01/08 11:28:12;;;;;;;12.43;9.00;;;;;;;;;;6284225;22;20026;-87
2024/01/08 11:31:15;;;;;;;11.50;8.60;;;;;;;;;;6284672;22;20018;-87
2024/01/08 11:34:17;;;;;;;11.37;8.80;;;;;;;;;;6284322;22;20030;-87
2024/01/08 11:37:13;;;;;;;14.25;8.20;;;;;;;;;;6284544;22;20148;-88
2024/01/08 11:40:00;;;;;;;17.48;8.35;;;;;;;;;;6284199;22;20015;-88
2024/01/08 11:42:45;;;;;;;13.68;8.45;;;;;;;;;;6284010;22;20045;-89
2024/01/08 11:45:29;;;;;;;12.30;8.43;;;;;;;;;;6284099;22;20034;-87
2024/01/08 11:48:13;;;;;;;12.93;8.57;;;;;;;;;;6284387;22;20017;-89
2024/01/08 11:50:58;;;;;;;19.73;7.72;;;;;;;;;;6284333;22;20018;-88
2024/01/08 11:53:42;;;;;;;17.25;8.00;;;;;;;;;;6284318;22;20018;-89
2024/01/08 11:56:29;;;;;;;10.38;8.10;;;;;;;;;;6284152;22;20046;-88
2024/01/08 11:59:28;;;;;;;10.00;7.90;;;;;;;;;;6284416;22;20068;-88
2024/01/08 12:02:16;;;;;;;12.77;7.90;;;;;;;;;;6284493;22;20346;-87
2024/01/08 12:05:05;;;;;;;12.05;8.82;;;;;;;;;;6307058;22;20042;-90
2024/01/08 12:07:51;;;;;;;14.73;8.57;;;;;;;;;;6283994;22;20019;-88
2024/01/08 12:10:35;;;;;;;11.35;6.93;;;;;;;;;;6283928;22;20018;-89
2024/01/08 12:13:19;;;;;;;9.27;7.25;;;;;;;;;;6283709;22;20506;-88
2024/01/08 12:16:05;;;;;;;10.63;7.97;;;;;;;;;;6283896;22;20081;-88
2024/01/08 12:18:49;;;;;;;14.48;8.93;;;;;;;;;;6284304;22;20473;-88
2024/01/08 12:21:33;;;;;;;10.43;8.20;;;;;;;;;;6283945;22;20757;-86
2024/01/08 12:24:17;;;;;;;8.63;7.18;;;;;;;;;;6306473;22;20093;-87
2024/01/08 12:27:02;;;;;;;20.23;7.53;;;;;;;;;;6283965;22;20026;-88
2024/01/08 12:29:57;;;;;;;18.50;8.50;;;;;;;;;;6285483;22;20018;-87
2024/01/08 12:32:44;;;;;;;14.50;8.55;;;;;;;;;;6284703;22;20030;-88
2024/01/08 12:35:29;;;;;;;16.95;8.60;;;;;;;;;;6308989;22;20100;-88
2024/01/08 12:38:13;;;;;;;13.00;7.10;;;;;;;;;;6283888;22;20373;-87
2024/01/08 12:40:57;;;;;;;12.32;7.65;;;;;;;;;;6282400;22;20100;-88
2024/01/08 12:43:41;;;;;;;11.45;7.30;;;;;;;;;;6283733;22;20022;-87
2024/01/08 12:46:25;;;;;;;10.73;7.15;;;;;;;;;;6283346;22;20457;-87
2024/01/08 12:49:09;;;;;;;12.07;7.10;;;;;;;;;;6284128;22;20018;-87
2024/01/08 12:51:58;;;;;;;13.18;7.47;;;;;;;;;;6283729;22;20065;-87
2024/01/08 12:54:45;;;;;;;9.93;7.47;;;;;;;;;;6283184;22;20076;-90
2024/01/08 12:57:30;;;;;;;13.23;7.88;;;;;;;;;;6283731;22;20354;-89
2024/01/08 13:00:14;;;;;;;11.13;7.68;;;;;;;;;;6307068;22;20021;-88
2024/01/08 13:02:58;;;;;;;9.50;6.97;;;;;;;;;;6283491;22;20061;-86
2024/01/08 13:05:43;;;;;;;12.23;7.63;;;;;;;;;;6207013;23;20025;-88
2024/01/08 13:08:26;;;;;;;9.77;7.80;;;;;;;;;;6207474;23;20555;-88
2024/01/08 13:11:10;;;;;;;14.95;7.65;;;;;;;;;;6207031;23;20017;-90
2024/01/08 13:13:55;;;;;;;12.65;7.57;;;;;;;;;;6207432;23;20031;-89
2024/01/08 13:16:43;;;;;;;10.95;7.88;;;;;;;;;;6122630;23;20024;-87
2024/01/08 13:19:28;;;;;;;13.15;8.63;;;;;;;;;;6206862;23;20476;-87
2024/01/08 13:22:12;;;;;;;9.68;7.97;;;;;;;;;;6206758;23;20895;-88
2024/01/08 13:24:59;;;;;;;12.40;8.32;;;;;;;;;;6207437;23;20021;-89
2024/01/08 13:27:44;;;;;;;8.73;7.28;;;;;;;;;;6206740;23;20071;-87
2024/01/08 13:30:29;;;;;;;10.00;7.50;;;;;;;;;;6121125;23;20017;-89
2024/01/08 13:33:13;;;;;;;9.20;7.43;;;;;;;;;;6120795;23;20105;-86
2024/01/08 13:36:00;;;;;;;10.63;7.70;;;;;;;;;;6206592;23;20021;-87
2024/01/08 13:38:44;;;;;;;12.07;7.97;;;;;;;;;;6207107;23;20029;-88
2024/01/08 13:41:28;;;;;;;16.63;8.40;;;;;;;;;;6120788;23;20067;-88
2024/01/08 13:44:12;;;;;;;12.80;8.95;;;;;;;;;;6206914;23;20028;-88
2024/01/08 13:46:56;;;;;;;13.20;8.73;;;;;;;;;;6120519;23;20029;-88
2024/01/08 13:49:40;;;;;;;9.98;8.13;;;;;;;;;;6206593;23;20045;-91
2024/01/08 13:52:26;;;;;;;25.50;9.15;;;;;;;;;;6120643;23;20021;-88
2024/01/08 13:55:10;;;;;;;14.05;8.30;;;;;;;;;;6206931;23;20098;-89
2024/01/08 13:57:54;;;;;;;16.08;9.45;;;;;;;;;;6206979;23;20112;-90
2024/01/08 14:00:39;;;;;;;12.15;8.38;;;;;;;;;;6206952;23;20024;-88
2024/01/08 14:03:23;;;;;;;14.40;8.00;;;;;;;;;;6216261;22;20348;-86
2024/01/08 14:06:07;;;;;;;14.85;7.88;;;;;;;;;;6305691;22;20461;-88
2024/01/08 14:08:51;;;;;;;9.75;7.78;;;;;;;;;;6282924;22;20465;-88
2024/01/08 14:11:35;;;;;;;12.27;7.90;;;;;;;;;;6305826;22;20014;-86
2024/01/08 14:14:19;;;;;;;16.73;7.63;;;;;;;;;;6282582;22;20434;-88
2024/01/08 14:17:03;;;;;;;13.13;7.93;;;;;;;;;;6282381;22;20068;-88
2024/01/08 14:19:47;;;;;;;14.93;7.90;;;;;;;;;;6282613;22;20392;-87
2024/01/08 14:22:34;;;;;;;15.25;9.38;;;;;;;;;;6282704;22;20026;-88
2024/01/08 14:25:18;;;;;;;15.05;8.70;;;;;;;;;;6305856;22;20056;-88
2024/01/08 14:28:01;;;;;;;13.02;8.57;;;;;;;;;;6282850;22;20107;-88
2024/01/08 14:30:45;;;;;;;11.30;8.40;;;;;;;;;;6306329;22;20102;-87
2024/01/08 14:33:29;;;;;;;19.02;9.38;;;;;;;;;;6305624;22;20066;-86
2024/01/08 14:36:13;;;;;;;14.40;9.10;;;;;;;;;;6282624;22;20105;-89
2024/01/08 14:38:57;;;;;;;14.10;9.07;;;;;;;;;;6282992;22;20053;-88
2024/01/08 14:41:47;;;;;;;12.73;8.98;;;;;;;;;;6282629;22;20064;-87
2024/01/08 14:44:33;;;;;;;14.50;8.15;;;;;;;;;;6306716;22;20346;-88
2024/01/08 14:47:17;;;;;;;17.60;9.77;;;;;;;;;;6284926;22;20094;-88
2024/01/08 14:50:01;;;;;;;16.45;10.07;;;;;;;;;;6285293;22;20033;-89
2024/01/08 14:52:45;;;;;;;10.90;9.52;;;;;;;;;;6284860;22;20019;-88
2024/01/08 14:55:29;;;;;;;12.85;9.57;;;;;;;;;;6284698;22;20022;-89
2024/01/08 14:58:13;;;;;;;12.02;9.55;;;;;;;;;;6284872;22;20053;-87
2024/01/08 15:00:57;;;;;;;12.55;9.60;;;;;;;;;;6284826;22;20323;-87
2024/01/08 15:03:43;;;;;;;13.63;8.00;;;;;;;;;;6307293;22;20073;-87
2024/01/08 15:06:27;;;;;;;21.33;12.18;;;;;;;;;;6284669;22;20050;-88
2024/01/08 15:09:11;;;;;;;14.90;9.15;;;;;;;;;;6284771;22;20017;-88
2024/01/08 15:11:55;;;;;;;21.67;9.85;;;;;;;;;;6284767;22;20097;-89
2024/01/08 15:14:38;;;;;;;17.77;9.63;;;;;;;;;;6307653;22;20021;-88
2024/01/08 15:17:22;;;;;;;13.63;8.23;;;;;;;;;;6307554;22;20054;-87
2024/01/08 15:20:07;;;;;;;16.50;9.05;;;;;;;;;;6307426;22;20065;-87
2024/01/08 15:22:54;;;;;;;20.65;8.60;;;;;;;;;;6307381;22;20036;-87
2024/01/08 15:25:38;;;;;;;18.75;7.72;;;;;;;;;;6283925;22;20022;-88
2024/01/08 15:28:22;;;;;;;13.43;8.73;;;;;;;;;;6284489;22;20091;-87
2024/01/08 15:31:06;;;;;;;17.92;8.73;;;;;;;;;;6307454;22;20025;-87
2024/01/08 15:33:50;;;;;;;13.82;8.38;;;;;;;;;;6283643;22;20034;-87
2024/01/08 15:36:34;;;;;;;13.30;9.25;;;;;;;;;;6284946;22;20018;-89
2024/01/08 15:39:19;;;;;;;16.08;9.30;;;;;;;;;;6282548;22;20433;-88
2024/01/08 15:42:03;;;;;;;14.40;10.02;;;;;;;;;;6283686;22;20064;-86
2024/01/08 15:44:48;;;;;;;15.68;8.30;;;;;;;;;;6283252;22;20022;-86
2024/01/08 15:47:32;;;;;;;16.73;7.97;;;;;;;;;;6283361;22;20496;-87
2024/01/08 15:50:17;;;;;;;24.95;8.35;;;;;;;;;;6306969;22;20057;-86
2024/01/08 15:53:01;;;;;;;13.70;8.43;;;;;;;;;;6306583;22;20030;-88
2024/01/08 15:55:45;;;;;;;16.13;9.30;;;;;;;;;;6283144;22;20373;-89
2024/01/08 15:58:29;;;;;;;19.40;9.20;;;;;;;;;;6283529;22;20030;-88
2024/01/08 16:01:14;;;;;;;15.23;8.82;;;;;;;;;;6307734;22;20014;-88
2024/01/08 16:03:58;;;;;;;12.90;8.85;;;;;;;;;;6282476;22;20072;-88
2024/01/08 16:06:42;;;;;;;14.48;9.13;;;;;;;;;;6282518;22;20030;-86
2024/01/08 16:09:26;;;;;;;15.05;8.52;;;;;;;;;;6306097;22;20469;-88